createdAt,value
2023-02-20T00:02:09.702Z,99185.72
2023-02-20T00:04:39.777Z,99188.13
2023-02-20T00:07:09.769Z,99195.38
2023-02-20T00:09:42.346Z,99180.94
2023-02-20T00:12:12.353Z,99188.91
2023-02-20T00:14:43.208Z,99185.47
2023-02-20T00:17:13.303Z,99185.28
2023-02-20T00:19:43.264Z,99183.50
2023-02-20T00:22:13.241Z,99183.91
2023-02-20T00:24:45.973Z,99177.38
2023-02-20T00:27:15.974Z,99172.59
2023-02-20T00:29:48.600Z,99171.38
2023-02-20T00:32:19.026Z,99172.97
2023-02-20T00:34:49.058Z,99166.78
2023-02-20T00:37:19.055Z,99170.66
2023-02-20T00:39:52.135Z,99170.88
2023-02-20T00:42:22.337Z,99179.13
2023-02-20T00:44:52.340Z,99179.63
2023-02-20T00:47:22.302Z,99186.38
2023-02-20T00:49:52.518Z,99200.06
2023-02-20T00:52:26.909Z,99202.63
2023-02-20T00:54:59.532Z,99204.56
2023-02-20T00:57:29.503Z,99205.06
2023-02-20T00:59:59.563Z,99212.34
2023-02-20T01:02:29.678Z,99195.53
2023-02-20T01:04:59.704Z,99193.19
2023-02-20T01:07:29.742Z,99201.91
2023-02-20T01:10:02.291Z,99198.28
2023-02-20T01:12:32.360Z,99195.94
2023-02-20T01:15:02.512Z,99206.75
2023-02-20T01:17:32.926Z,99209.47
2023-02-20T01:20:02.969Z,99203.06
2023-02-20T01:22:32.978Z,99200.41
2023-02-20T01:25:05.908Z,99188.50
2023-02-20T01:27:36.126Z,99183.84
2023-02-20T01:30:06.699Z,99176.84
2023-02-20T01:32:36.984Z,99171.03
2023-02-20T01:35:07.396Z,99184.00
2023-02-20T01:37:37.673Z,99177.56
2023-02-20T01:40:17.547Z,99170.13
2023-02-20T01:42:47.514Z,99177.09
2023-02-20T01:45:32.142Z,99172.56
2023-02-20T01:48:02.191Z,99168.84
2023-02-20T01:50:38.144Z,99173.97
2023-02-20T01:53:14.579Z,99172.09
2023-02-20T01:55:55.374Z,99170.94
2023-02-20T01:58:32.148Z,99169.06
2023-02-20T02:01:03.899Z,99164.53
2023-02-20T02:03:39.023Z,99171.31
2023-02-20T02:06:14.949Z,99171.81
2023-02-20T02:08:48.001Z,99169.13
2023-02-20T02:11:25.524Z,99169.84
2023-02-20T02:13:55.849Z,99166.50
2023-02-20T02:16:39.279Z,99166.06
2023-02-20T02:19:28.510Z,99162.03
2023-02-20T02:22:41.742Z,99153.44
2023-02-20T02:25:42.233Z,99151.41
2023-02-20T02:29:18.487Z,99143.94
2023-02-20T02:32:25.101Z,99146.50
2023-02-20T02:35:30.981Z,99140.31
2023-02-20T02:38:20.732Z,99153.53
2023-02-20T02:41:04.832Z,99145.38
2023-02-20T02:43:48.902Z,99148.81
2023-02-20T02:46:29.240Z,99145.91
2023-02-20T02:49:09.302Z,99156.66
2023-02-20T02:51:45.781Z,99148.03
2023-02-20T02:54:24.589Z,99150.28
2023-02-20T02:56:55.115Z,99147.06
2023-02-20T02:59:33.715Z,99147.94
2023-02-20T03:02:12.945Z,99149.81
2023-02-20T03:04:47.471Z,99144.09
2023-02-20T03:07:20.391Z,99145.19
2023-02-20T03:09:59.904Z,99145.44
2023-02-20T03:12:32.134Z,99141.41
2023-02-20T03:15:25.557Z,99139.88
2023-02-20T03:18:13.193Z,99142.88
2023-02-20T03:20:49.062Z,99137.06
2023-02-20T03:23:24.940Z,99142.44
2023-02-20T03:26:02.037Z,99141.66
2023-02-20T03:28:40.271Z,99146.22
2023-02-20T03:31:17.654Z,99136.09
2023-02-20T03:34:06.211Z,99131.69
2023-02-20T03:36:54.457Z,99134.78
2023-02-20T03:39:46.313Z,99141.25
2023-02-20T03:42:36.012Z,99141.41
2023-02-20T03:45:15.660Z,99152.50
2023-02-20T03:47:52.967Z,99150.69
2023-02-20T03:50:25.450Z,99157.81
2023-02-20T03:52:56.956Z,99157.38
2023-02-20T03:55:27.733Z,99154.81
2023-02-20T03:58:08.703Z,99161.63
2023-02-20T04:00:45.974Z,99154.41
2023-02-20T04:03:23.137Z,99145.91
2023-02-20T04:05:59.897Z,99151.41
2023-02-20T04:08:41.567Z,99144.41
2023-02-20T04:11:17.029Z,99141.94
2023-02-20T04:13:52.459Z,99130.34
2023-02-20T04:16:24.494Z,99134.41
2023-02-20T04:18:55.269Z,99131.63
2023-02-20T04:21:37.613Z,99123.19
2023-02-20T04:24:14.019Z,99125.03
2023-02-20T04:26:44.423Z,99122.25
2023-02-20T04:29:17.593Z,99122.91
2023-02-20T04:31:47.769Z,99118.63
2023-02-20T04:34:19.137Z,99125.00
2023-02-20T04:36:49.905Z,99123.28
2023-02-20T04:39:22.248Z,99123.66
2023-02-20T04:41:52.441Z,99122.56
2023-02-20T04:44:35.223Z,99123.59
2023-02-20T04:47:14.412Z,99116.97
2023-02-20T04:49:44.541Z,99115.75
2023-02-20T04:52:18.933Z,99112.22
2023-02-20T04:54:49.618Z,99117.22
2023-02-20T04:57:20.592Z,99115.31
2023-02-20T04:59:53.154Z,99121.84
2023-02-20T05:02:23.160Z,99123.84
2023-02-20T05:04:53.214Z,99121.84
2023-02-20T05:07:23.171Z,99120.84
2023-02-20T05:09:53.214Z,99128.84
2023-02-20T05:12:23.182Z,99128.91
2023-02-20T05:14:55.871Z,99116.03
2023-02-20T05:17:25.900Z,99112.00
2023-02-20T05:19:55.854Z,99123.78
2023-02-20T05:22:23.502Z,99121.94
2023-02-20T05:24:55.123Z,99116.63
2023-02-20T05:27:27.037Z,99120.91
2023-02-20T05:30:02.362Z,99130.84
2023-02-20T05:32:33.792Z,99120.03
2023-02-20T05:35:03.802Z,99129.38
2023-02-20T05:37:33.929Z,99129.28
2023-02-20T05:40:05.869Z,99128.84
2023-02-20T05:42:37.745Z,99126.75
2023-02-20T05:45:11.864Z,99126.06
2023-02-20T05:47:41.989Z,99133.69
2023-02-20T05:50:12.582Z,99133.00
2023-02-20T05:52:42.830Z,99135.41
2023-02-20T05:55:12.776Z,99123.84
2023-02-20T05:57:42.736Z,99131.22
2023-02-20T06:00:16.828Z,99132.16
2023-02-20T06:02:46.778Z,99129.91
2023-02-20T06:05:17.695Z,99125.84
2023-02-20T06:07:47.864Z,99131.59
2023-02-20T06:10:21.026Z,99132.28
2023-02-20T06:12:51.222Z,99143.31
2023-02-20T06:15:24.072Z,99141.25
2023-02-20T06:17:54.054Z,99141.03
2023-02-20T06:20:24.023Z,99142.38
2023-02-20T06:22:54.112Z,99139.06
2023-02-20T06:25:24.078Z,99142.38
2023-02-20T06:27:54.186Z,99141.94
2023-02-20T06:30:26.843Z,99148.81
2023-02-20T06:32:56.906Z,99146.31
2023-02-20T06:35:26.944Z,99141.38
2023-02-20T06:37:57.096Z,99144.81
2023-02-20T06:40:27.234Z,99145.59
2023-02-20T06:42:57.295Z,99146.97
2023-02-20T06:45:29.882Z,99140.09
2023-02-20T06:48:00.108Z,99147.44
2023-02-20T06:50:30.129Z,99152.13
2023-02-20T06:53:00.217Z,99157.72
2023-02-20T06:55:30.744Z,99159.69
2023-02-20T06:58:00.963Z,99167.34
2023-02-20T07:00:33.618Z,99166.72
2023-02-20T07:03:03.605Z,99163.78
2023-02-20T07:05:33.569Z,99156.59
2023-02-20T07:08:03.571Z,99163.81
2023-02-20T07:10:33.593Z,99174.06
2023-02-20T07:13:06.214Z,99169.41
2023-02-20T07:15:38.867Z,99170.25
2023-02-20T07:18:08.989Z,99175.34
2023-02-20T07:20:38.969Z,99171.88
2023-02-20T07:23:08.946Z,99175.09
2023-02-20T07:25:39.051Z,99176.97
2023-02-20T07:28:09.472Z,99175.53
2023-02-20T07:30:42.019Z,99187.16
2023-02-20T07:33:12.020Z,99187.97
2023-02-20T07:35:42.070Z,99179.28
2023-02-20T07:38:12.146Z,99180.47
2023-02-20T07:40:42.194Z,99180.19
2023-02-20T07:43:12.434Z,99192.72
2023-02-20T07:45:46.285Z,99186.47
2023-02-20T07:48:16.273Z,99187.47
2023-02-20T07:50:46.283Z,99186.88
2023-02-20T07:53:20.146Z,99172.88
2023-02-20T07:55:50.460Z,99172.97
2023-02-20T07:58:20.388Z,99163.25
2023-02-20T08:00:55.605Z,99163.97
2023-02-20T08:03:25.589Z,99170.13
2023-02-20T08:05:55.584Z,99167.47
2023-02-20T08:08:26.276Z,99159.00
2023-02-20T08:11:03.577Z,99157.31
2023-02-20T08:13:38.152Z,99158.31
2023-02-20T08:16:11.118Z,99152.69
2023-02-20T08:18:41.535Z,99154.31
2023-02-20T08:21:11.573Z,99140.41
2023-02-20T08:23:41.615Z,99146.81
2023-02-20T08:26:12.127Z,99151.13
2023-02-20T08:28:42.673Z,99150.53
2023-02-20T08:31:30.901Z,99141.03
2023-02-20T08:34:02.273Z,99144.72
2023-02-20T08:36:32.569Z,99128.97
2023-02-20T08:39:03.551Z,99126.41
2023-02-20T08:41:33.807Z,99132.59
2023-02-20T08:44:03.783Z,99126.19
2023-02-20T08:46:36.334Z,99131.66
2023-02-20T08:49:07.056Z,99120.22
2023-02-20T08:51:37.004Z,99123.13
2023-02-20T08:54:07.178Z,99118.03
2023-02-20T08:56:37.251Z,99113.66
2023-02-20T08:59:07.796Z,99122.03
2023-02-20T09:01:43.323Z,99109.97
2023-02-20T09:04:13.812Z,99115.03
2023-02-20T09:06:43.776Z,99108.03
2023-02-20T09:09:13.827Z,99114.53
2023-02-20T09:11:43.878Z,99111.22
2023-02-20T09:14:13.973Z,99115.19
2023-02-20T09:16:46.512Z,99109.31
2023-02-20T09:19:17.767Z,99097.38
2023-02-20T09:21:49.616Z,99108.00
2023-02-20T09:24:20.008Z,99104.34
2023-02-20T09:26:49.959Z,99105.44
2023-02-20T09:29:19.937Z,99097.25
2023-02-20T09:31:52.541Z,99097.34
2023-02-20T09:34:22.643Z,99092.25
2023-02-20T09:36:54.294Z,99085.66
2023-02-20T09:39:25.223Z,99081.84
2023-02-20T09:42:10.542Z,99082.91
2023-02-20T09:44:53.449Z,99084.97
2023-02-20T09:47:40.935Z,99085.03
2023-02-20T09:50:19.324Z,99078.00
2023-02-20T09:53:03.543Z,99083.91
2023-02-20T09:55:41.119Z,99073.97
2023-02-20T09:58:24.616Z,99077.25
2023-02-20T10:00:55.611Z,99080.28
2023-02-20T10:03:40.393Z,99068.69
2023-02-20T10:06:20.001Z,99071.34
2023-02-20T10:08:53.260Z,99074.16
2023-02-20T10:11:40.057Z,99063.47
2023-02-20T10:14:34.097Z,99058.28
2023-02-20T10:17:21.180Z,99058.19
2023-02-20T10:20:03.354Z,99057.50
2023-02-20T10:22:39.415Z,99047.53
2023-02-20T10:25:20.269Z,99055.88
2023-02-20T10:28:00.246Z,99046.63
2023-02-20T10:30:37.013Z,99043.28
2023-02-20T10:33:26.656Z,99039.25
2023-02-20T10:36:09.624Z,99044.25
2023-02-20T10:38:47.835Z,99047.84
2023-02-20T10:41:28.353Z,99038.19
2023-02-20T10:44:05.885Z,99037.06
2023-02-20T10:46:49.813Z,99033.63
2023-02-20T10:49:27.533Z,99033.75
2023-02-20T10:52:05.456Z,99032.59
2023-02-20T10:54:44.870Z,99025.41
2023-02-20T10:57:25.577Z,99021.97
2023-02-20T11:00:05.290Z,99024.78
2023-02-20T11:02:42.250Z,99026.78
2023-02-20T11:05:19.960Z,99025.84
2023-02-20T11:07:52.860Z,99020.38
2023-02-20T11:10:22.904Z,99016.06
2023-02-20T11:13:00.421Z,99013.69
2023-02-20T11:15:36.762Z,98997.91
2023-02-20T11:18:26.126Z,99004.16
2023-02-20T11:20:57.366Z,99004.06
2023-02-20T11:23:45.783Z,99003.22
2023-02-20T11:26:30.631Z,99003.59
2023-02-20T11:29:16.753Z,98997.66
2023-02-20T11:31:48.181Z,98996.84
2023-02-20T11:34:23.296Z,99001.44
2023-02-20T11:36:57.213Z,98995.69
2023-02-20T11:39:33.406Z,98986.41
2023-02-20T11:42:15.970Z,98986.34
2023-02-20T11:44:48.594Z,98978.16
2023-02-20T11:47:28.204Z,98971.47
2023-02-20T11:50:19.887Z,98973.66
2023-02-20T11:53:05.417Z,98960.75
2023-02-20T11:55:39.992Z,98966.16
2023-02-20T11:58:24.454Z,98959.38
2023-02-20T12:00:57.342Z,98953.84
2023-02-20T12:03:32.650Z,98947.19
2023-02-20T12:06:05.908Z,98933.78
2023-02-20T12:08:54.207Z,98939.63
2023-02-20T12:11:29.973Z,98931.63
2023-02-20T12:14:02.656Z,98930.16
2023-02-20T12:16:54.242Z,98922.72
2023-02-20T12:19:35.535Z,98916.38
2023-02-20T12:22:20.000Z,98913.53
2023-02-20T12:25:05.180Z,98900.91
2023-02-20T12:27:57.641Z,98904.16
2023-02-20T12:30:44.079Z,98899.94
2023-02-20T12:33:50.662Z,98901.28
2023-02-20T12:36:41.991Z,98889.50
2023-02-20T12:39:31.011Z,98882.13
2023-02-20T12:42:15.610Z,98873.44
2023-02-20T12:45:20.774Z,98873.00
2023-02-20T12:48:15.092Z,98862.06
2023-02-20T12:51:12.155Z,98858.72
2023-02-20T12:54:03.888Z,98854.72
2023-02-20T12:56:52.320Z,98840.41
2023-02-20T12:59:34.096Z,98843.91
2023-02-20T13:02:35.828Z,98837.38
2023-02-20T13:05:17.207Z,98836.22
2023-02-20T13:07:55.187Z,98826.66
2023-02-20T13:10:28.462Z,98829.28
2023-02-20T13:12:58.882Z,98817.06
2023-02-20T13:15:44.100Z,98810.56
2023-02-20T13:18:31.099Z,98806.22
2023-02-20T13:21:08.173Z,98799.56
2023-02-20T13:23:42.111Z,98793.78
2023-02-20T13:26:50.441Z,98785.34
2023-02-20T13:29:24.498Z,98789.31
2023-02-20T13:31:57.036Z,98781.63
2023-02-20T13:34:39.446Z,98779.06
2023-02-20T13:37:57.336Z,98761.88
2023-02-20T13:40:45.741Z,98742.97
2023-02-20T13:43:33.866Z,98731.13
2023-02-20T13:46:22.508Z,98733.09
2023-02-20T13:48:56.333Z,98733.50
2023-02-20T13:51:41.551Z,98726.19
2023-02-20T13:54:38.248Z,98724.75
2023-02-20T13:57:21.212Z,98727.50
2023-02-20T13:59:55.331Z,98728.06
2023-02-20T14:02:30.347Z,98721.16
2023-02-20T14:05:04.702Z,98719.91
2023-02-20T14:07:42.687Z,98711.56
2023-02-20T14:10:26.551Z,98699.13
2023-02-20T14:13:03.685Z,98692.59
2023-02-20T14:15:45.628Z,98699.38
2023-02-20T14:18:29.654Z,98706.56
2023-02-20T14:21:12.607Z,98697.47
2023-02-20T14:23:43.993Z,98703.03
2023-02-20T14:26:25.007Z,98710.31
2023-02-20T14:28:59.209Z,98708.41
2023-02-20T14:31:33.571Z,98704.41
2023-02-20T14:34:16.315Z,98701.34
2023-02-20T14:37:02.119Z,98688.09
2023-02-20T14:39:54.517Z,98670.13
2023-02-20T14:42:27.985Z,98676.44
2023-02-20T14:45:04.511Z,98685.94
2023-02-20T14:47:35.728Z,98682.00
2023-02-20T14:50:19.878Z,98665.34
2023-02-20T14:52:50.075Z,98651.53
2023-02-20T14:55:21.622Z,98664.25
2023-02-20T14:57:53.734Z,98669.75
2023-02-20T15:00:37.219Z,98665.25
2023-02-20T15:03:30.304Z,98653.19
2023-02-20T15:06:09.672Z,98637.06
2023-02-20T15:08:40.262Z,98647.78
2023-02-20T15:11:13.636Z,98643.84
2023-02-20T15:13:49.284Z,98649.78
2023-02-20T15:16:27.128Z,98646.25
2023-02-20T15:18:58.431Z,98646.66
2023-02-20T15:21:41.093Z,98640.34
2023-02-20T15:24:40.738Z,98643.91
2023-02-20T15:27:18.463Z,98636.81
2023-02-20T15:29:50.257Z,98650.25
2023-02-20T15:32:30.359Z,98645.28
2023-02-20T15:35:01.095Z,98640.78
2023-02-20T15:37:43.108Z,98636.06
2023-02-20T15:40:26.312Z,98647.50
2023-02-20T15:43:04.486Z,98645.91
2023-02-20T15:45:39.145Z,98637.44
2023-02-20T15:48:11.821Z,98645.72
2023-02-20T15:50:41.834Z,98648.63
2023-02-20T15:53:21.040Z,98653.53
2023-02-20T15:55:54.983Z,98646.34
2023-02-20T15:58:34.220Z,98645.34
2023-02-20T16:01:06.816Z,98635.88
2023-02-20T16:03:50.532Z,98639.75
2023-02-20T16:06:22.545Z,98635.91
2023-02-20T16:08:56.252Z,98642.69
2023-02-20T16:11:31.360Z,98638.50
2023-02-20T16:14:04.856Z,98637.09
2023-02-20T16:16:38.585Z,98640.16
2023-02-20T16:19:17.058Z,98638.13
2023-02-20T16:21:58.587Z,98637.19
2023-02-20T16:24:35.467Z,98628.34
2023-02-20T16:27:21.610Z,98635.09
2023-02-20T16:29:53.939Z,98635.69
2023-02-20T16:32:27.448Z,98637.22
2023-02-20T16:34:59.553Z,98633.09
2023-02-20T16:37:29.821Z,98625.50
2023-02-20T16:40:02.319Z,98634.91
2023-02-20T16:42:35.868Z,98620.16
2023-02-20T16:45:10.700Z,98627.19
2023-02-20T16:47:40.760Z,98627.81
2023-02-20T16:50:16.442Z,98625.69
2023-02-20T16:52:46.442Z,98623.84
2023-02-20T16:55:25.682Z,98614.78
2023-02-20T16:57:55.823Z,98614.34
2023-02-20T17:00:29.696Z,98618.19
2023-02-20T17:03:00.616Z,98614.19
2023-02-20T17:05:33.508Z,98619.16
2023-02-20T17:08:04.565Z,98619.00
2023-02-20T17:10:37.752Z,98627.25
2023-02-20T17:13:07.701Z,98617.78
2023-02-20T17:15:37.882Z,98625.97
2023-02-20T17:18:08.515Z,98619.59
2023-02-20T17:20:39.331Z,98628.34
2023-02-20T17:23:09.933Z,98629.72
2023-02-20T17:25:42.420Z,98632.47
2023-02-20T17:28:15.698Z,98630.63
2023-02-20T17:30:47.758Z,98627.97
2023-02-20T17:33:17.991Z,98630.53
2023-02-20T17:35:48.159Z,98627.97
2023-02-20T17:38:18.240Z,98622.28
2023-02-20T17:40:50.751Z,98637.69
2023-02-20T17:43:20.784Z,98636.41
2023-02-20T17:45:50.685Z,98642.56
2023-02-20T17:48:20.745Z,98643.38
2023-02-20T17:50:50.693Z,98644.03
2023-02-20T17:53:20.622Z,98636.25
2023-02-20T17:55:53.187Z,98642.28
2023-02-20T17:58:23.986Z,98638.78
2023-02-20T18:00:54.395Z,98639.88
2023-02-20T18:03:24.416Z,98641.78
2023-02-20T18:05:55.280Z,98636.38
2023-02-20T18:08:25.345Z,98630.75
2023-02-20T18:10:58.091Z,98639.47
2023-02-20T18:13:28.352Z,98636.41
2023-02-20T18:15:58.422Z,98636.59
2023-02-20T18:18:28.548Z,98633.69
2023-02-20T18:20:59.385Z,98634.31
2023-02-20T18:23:29.577Z,98630.47
2023-02-20T18:26:02.080Z,98637.75
2023-02-20T18:28:32.054Z,98623.47
2023-02-20T18:31:02.735Z,98621.59
2023-02-20T18:33:32.730Z,98624.78
2023-02-20T18:36:08.253Z,98625.78
2023-02-20T18:38:49.693Z,98631.53
2023-02-20T18:41:22.481Z,98633.28
2023-02-20T18:43:52.460Z,98635.63
2023-02-20T18:46:30.380Z,98641.47
2023-02-20T18:49:02.221Z,98644.44
2023-02-20T18:51:34.834Z,98645.53
2023-02-20T18:54:05.079Z,98654.53
2023-02-20T18:56:39.098Z,98648.97
2023-02-20T18:59:09.167Z,98641.59
2023-02-20T19:01:45.053Z,98640.41
2023-02-20T19:04:16.004Z,98638.44
2023-02-20T19:06:47.137Z,98642.53
2023-02-20T19:09:20.708Z,98633.78
2023-02-20T19:11:56.531Z,98629.16
2023-02-20T19:14:29.410Z,98623.63
2023-02-20T19:17:02.778Z,98622.66
2023-02-20T19:19:34.558Z,98627.28
2023-02-20T19:22:04.983Z,98622.81
2023-02-20T19:24:34.954Z,98626.50
2023-02-20T19:27:07.600Z,98623.81
2023-02-20T19:29:39.528Z,98630.78
2023-02-20T19:32:12.183Z,98623.66
2023-02-20T19:34:42.202Z,98627.94
2023-02-20T19:37:12.187Z,98624.75
2023-02-20T19:39:42.452Z,98625.25
2023-02-20T19:42:16.984Z,98622.22
2023-02-20T19:44:46.944Z,98622.63
2023-02-20T19:47:18.511Z,98621.72
2023-02-20T19:49:48.930Z,98620.72
2023-02-20T19:52:19.651Z,98623.25
2023-02-20T19:54:50.780Z,98618.75
2023-02-20T19:57:24.291Z,98623.13
2023-02-20T19:59:54.410Z,98624.66
2023-02-20T20:02:25.876Z,98629.22
2023-02-20T20:04:55.905Z,98633.41
2023-02-20T20:07:25.807Z,98635.59
2023-02-20T20:09:55.957Z,98625.31
2023-02-20T20:12:41.016Z,98626.47
2023-02-20T20:15:12.122Z,98633.03
2023-02-20T20:17:42.128Z,98625.44
2023-02-20T20:20:13.901Z,98630.56
2023-02-20T20:22:45.352Z,98632.53
2023-02-20T20:25:16.009Z,98623.72
2023-02-20T20:27:51.185Z,98621.13
2023-02-20T20:30:25.794Z,98628.75
2023-02-20T20:32:56.774Z,98625.78
2023-02-20T20:35:31.848Z,98631.16
2023-02-20T20:38:04.244Z,98629.41
2023-02-20T20:40:34.560Z,98623.56
2023-02-20T20:43:07.837Z,98628.91
2023-02-20T20:45:37.794Z,98619.81
2023-02-20T20:48:08.115Z,98626.81
2023-02-20T20:50:38.322Z,98620.84
2023-02-20T20:53:09.416Z,98621.84
2023-02-20T20:55:40.198Z,98624.19
2023-02-20T20:58:12.848Z,98623.72
2023-02-20T21:00:42.843Z,98618.44
2023-02-20T21:03:15.747Z,98628.16
2023-02-20T21:05:45.755Z,98630.63
2023-02-20T21:08:15.711Z,98625.47
2023-02-20T21:10:45.893Z,98627.06
2023-02-20T21:13:18.478Z,98623.31
2023-02-20T21:15:48.846Z,98630.25
2023-02-20T21:18:18.962Z,98624.19
2023-02-20T21:20:48.918Z,98627.50
2023-02-20T21:23:19.000Z,98630.53
2023-02-20T21:25:48.962Z,98625.50
2023-02-20T21:28:21.576Z,98622.44
2023-02-20T21:30:51.696Z,98613.50
2023-02-20T21:33:21.754Z,98619.91
2023-02-20T21:35:51.678Z,98616.81
2023-02-20T21:38:21.805Z,98606.28
2023-02-20T21:40:52.010Z,98614.47
2023-02-20T21:43:37.084Z,98618.78
2023-02-20T21:46:07.133Z,98618.56
2023-02-20T21:48:37.195Z,98614.88
2023-02-20T21:51:07.341Z,98613.81
2023-02-20T21:53:37.546Z,98610.63
2023-02-20T21:56:08.019Z,98617.72
2023-02-20T21:58:55.943Z,98611.56
2023-02-20T22:01:23.197Z,98612.53
2023-02-20T22:03:51.943Z,98616.69
2023-02-20T22:06:19.267Z,98610.19
2023-02-20T22:09:01.805Z,98604.91
2023-02-20T22:11:46.222Z,98614.09
2023-02-20T22:14:31.214Z,98610.50
2023-02-20T22:17:13.622Z,98609.72
2023-02-20T22:19:56.032Z,98606.13
2023-02-20T22:22:38.777Z,98606.25
2023-02-20T22:25:22.145Z,98611.97
2023-02-20T22:28:04.591Z,98617.78
2023-02-20T22:30:51.155Z,98615.44
2023-02-20T22:33:34.522Z,98607.47
2023-02-20T22:36:16.944Z,98611.84
2023-02-20T22:38:59.355Z,98607.19
2023-02-20T22:41:41.776Z,98614.22
2023-02-20T22:44:24.310Z,98610.88
2023-02-20T22:47:09.437Z,98610.25
2023-02-20T22:49:51.890Z,98610.31
2023-02-20T22:52:35.795Z,98613.72
2023-02-20T22:55:18.321Z,98611.59
2023-02-20T22:58:00.790Z,98606.91
2023-02-20T23:00:43.271Z,98605.50
2023-02-20T23:03:29.016Z,98604.38
2023-02-20T23:06:19.941Z,98606.22
2023-02-20T23:09:04.104Z,98601.44
2023-02-20T23:11:49.448Z,98606.72
2023-02-20T23:14:31.896Z,98606.03
2023-02-20T23:17:18.749Z,98609.00
2023-02-20T23:20:08.825Z,98603.34
2023-02-20T23:22:51.317Z,98595.06
2023-02-20T23:25:33.749Z,98590.53
2023-02-20T23:28:16.240Z,98589.56
2023-02-20T23:30:58.950Z,98592.09
2023-02-20T23:33:41.391Z,98590.28
2023-02-20T23:36:26.620Z,98589.19
2023-02-20T23:39:09.113Z,98590.03
2023-02-20T23:41:51.714Z,98591.63
2023-02-20T23:44:34.398Z,98586.59
2023-02-20T23:47:16.938Z,98582.31
2023-02-20T23:49:59.822Z,98585.53
2023-02-20T23:52:44.872Z,98583.81
2023-02-20T23:55:27.363Z,98581.56
2023-02-20T23:58:09.827Z,98585.88
